sensor_id;sensor_type;location;lat;lon;timestamp;P1;durP1;ratioP1;P2;durP2;ratioP2
18726;SDS011;9492;51.888;5.186;2024-03-08T00:00:11;28.10;;;17.20;;
18726;SDS011;9492;51.888;5.186;2024-03-08T00:02:44;31.50;;;17.37;;
18726;SDS011;9492;51.888;5.186;2024-03-08T00:05:10;26.93;;;17.07;;
18726;SDS011;9492;51.888;5.186;2024-03-08T00:07:40;26.07;;;16.43;;
18726;SDS011;9492;51.888;5.186;2024-03-08T00:10:07;27.53;;;16.47;;
18726;SDS011;9492;51.888;5.186;2024-03-08T00:12:40;33.80;;;17.97;;
18726;SDS011;9492;51.888;5.186;2024-03-08T00:15:07;30.77;;;18.27;;
18726;SDS011;9492;51.888;5.186;2024-03-08T00:17:33;28.93;;;17.80;;
18726;SDS011;9492;51.888;5.186;2024-03-08T00:19:59;25.40;;;16.37;;
18726;SDS011;9492;51.888;5.186;2024-03-08T00:22:28;29.63;;;16.63;;
18726;SDS011;9492;51.888;5.186;2024-03-08T00:24:55;25.90;;;17.37;;
18726;SDS011;9492;51.888;5.186;2024-03-08T00:27:21;29.67;;;17.30;;
18726;SDS011;9492;51.888;5.186;2024-03-08T00:29:47;31.20;;;17.67;;
18726;SDS011;9492;51.888;5.186;2024-03-08T00:32:13;26.33;;;17.00;;
18726;SDS011;9492;51.888;5.186;2024-03-08T00:34:39;27.33;;;18.07;;
18726;SDS011;9492;51.888;5.186;2024-03-08T00:37:05;28.93;;;16.80;;
18726;SDS011;9492;51.888;5.186;2024-03-08T00:39:31;28.57;;;16.30;;
18726;SDS011;9492;51.888;5.186;2024-03-08T00:41:57;28.40;;;17.40;;
18726;SDS011;9492;51.888;5.186;2024-03-08T00:44:23;26.33;;;16.27;;
18726;SDS011;9492;51.888;5.186;2024-03-08T00:46:49;23.93;;;15.43;;
18726;SDS011;9492;51.888;5.186;2024-03-08T00:49:16;27.27;;;16.87;;
18726;SDS011;9492;51.888;5.186;2024-03-08T00:51:42;29.00;;;15.83;;
18726;SDS011;9492;51.888;5.186;2024-03-08T00:54:08;29.43;;;17.13;;
18726;SDS011;9492;51.888;5.186;2024-03-08T00:56:34;28.07;;;16.87;;
18726;SDS011;9492;51.888;5.186;2024-03-08T00:59:01;26.80;;;16.67;;
18726;SDS011;9492;51.888;5.186;2024-03-08T01:01:27;29.67;;;16.80;;
18726;SDS011;9492;51.888;5.186;2024-03-08T01:03:53;27.83;;;18.00;;
18726;SDS011;9492;51.888;5.186;2024-03-08T01:06:19;28.50;;;16.03;;
18726;SDS011;9492;51.888;5.186;2024-03-08T01:08:46;27.67;;;16.67;;
18726;SDS011;9492;51.888;5.186;2024-03-08T01:11:15;29.50;;;16.87;;
18726;SDS011;9492;51.888;5.186;2024-03-08T01:13:42;28.83;;;17.07;;
18726;SDS011;9492;51.888;5.186;2024-03-08T01:16:08;26.37;;;15.67;;
18726;SDS011;9492;51.888;5.186;2024-03-08T01:18:34;28.37;;;16.87;;
18726;SDS011;9492;51.888;5.186;2024-03-08T01:21:00;25.30;;;16.60;;
18726;SDS011;9492;51.888;5.186;2024-03-08T01:23:26;27.07;;;16.67;;
18726;SDS011;9492;51.888;5.186;2024-03-08T01:25:52;24.20;;;16.10;;
18726;SDS011;9492;51.888;5.186;2024-03-08T01:28:22;26.87;;;16.73;;
18726;SDS011;9492;51.888;5.186;2024-03-08T01:30:49;26.03;;;16.63;;
18726;SDS011;9492;51.888;5.186;2024-03-08T01:33:20;25.10;;;15.57;;
18726;SDS011;9492;51.888;5.186;2024-03-08T01:35:47;24.23;;;16.03;;
18726;SDS011;9492;51.888;5.186;2024-03-08T01:38:13;24.87;;;16.07;;
18726;SDS011;9492;51.888;5.186;2024-03-08T01:40:40;28.57;;;16.80;;
18726;SDS011;9492;51.888;5.186;2024-03-08T01:43:19;27.27;;;16.60;;
18726;SDS011;9492;51.888;5.186;2024-03-08T01:45:45;26.27;;;16.17;;
18726;SDS011;9492;51.888;5.186;2024-03-08T01:48:11;28.53;;;17.37;;
18726;SDS011;9492;51.888;5.186;2024-03-08T01:50:38;24.13;;;14.87;;
18726;SDS011;9492;51.888;5.186;2024-03-08T01:53:05;24.30;;;16.43;;
18726;SDS011;9492;51.888;5.186;2024-03-08T01:55:31;23.70;;;15.77;;
18726;SDS011;9492;51.888;5.186;2024-03-08T01:57:58;25.60;;;17.00;;
18726;SDS011;9492;51.888;5.186;2024-03-08T02:00:25;24.93;;;15.97;;
18726;SDS011;9492;51.888;5.186;2024-03-08T02:02:53;26.90;;;16.10;;
18726;SDS011;9492;51.888;5.186;2024-03-08T02:05:19;26.50;;;16.43;;
18726;SDS011;9492;51.888;5.186;2024-03-08T02:07:46;22.97;;;14.90;;
18726;SDS011;9492;51.888;5.186;2024-03-08T02:10:12;26.73;;;16.90;;
18726;SDS011;9492;51.888;5.186;2024-03-08T02:12:38;24.67;;;15.63;;
18726;SDS011;9492;51.888;5.186;2024-03-08T02:15:04;28.90;;;16.17;;
18726;SDS011;9492;51.888;5.186;2024-03-08T02:17:33;28.53;;;17.83;;
18726;SDS011;9492;51.888;5.186;2024-03-08T02:20:00;24.13;;;15.47;;
18726;SDS011;9492;51.888;5.186;2024-03-08T02:22:27;22.13;;;16.67;;
18726;SDS011;9492;51.888;5.186;2024-03-08T02:24:54;24.23;;;16.23;;
18726;SDS011;9492;51.888;5.186;2024-03-08T02:27:28;23.80;;;16.40;;
18726;SDS011;9492;51.888;5.186;2024-03-08T02:29:58;24.73;;;14.97;;
18726;SDS011;9492;51.888;5.186;2024-03-08T02:32:24;20.40;;;14.47;;
18726;SDS011;9492;51.888;5.186;2024-03-08T02:34:50;22.47;;;15.67;;
18726;SDS011;9492;51.888;5.186;2024-03-08T02:37:17;21.27;;;14.53;;
18726;SDS011;9492;51.888;5.186;2024-03-08T02:39:43;24.23;;;15.23;;
18726;SDS011;9492;51.888;5.186;2024-03-08T02:42:10;23.27;;;15.30;;
18726;SDS011;9492;51.888;5.186;2024-03-08T02:44:36;23.33;;;15.77;;
18726;SDS011;9492;51.888;5.186;2024-03-08T02:47:02;28.80;;;15.70;;
18726;SDS011;9492;51.888;5.186;2024-03-08T02:49:28;21.60;;;15.47;;
18726;SDS011;9492;51.888;5.186;2024-03-08T02:51:54;23.43;;;15.97;;
18726;SDS011;9492;51.888;5.186;2024-03-08T02:54:22;22.17;;;15.27;;
18726;SDS011;9492;51.888;5.186;2024-03-08T02:56:49;23.90;;;17.13;;
18726;SDS011;9492;51.888;5.186;2024-03-08T02:59:17;24.80;;;15.80;;
18726;SDS011;9492;51.888;5.186;2024-03-08T03:01:43;29.00;;;15.30;;
18726;SDS011;9492;51.888;5.186;2024-03-08T03:04:09;24.77;;;16.57;;
18726;SDS011;9492;51.888;5.186;2024-03-08T03:06:36;23.73;;;16.53;;
18726;SDS011;9492;51.888;5.186;2024-03-08T03:09:02;25.50;;;17.03;;
18726;SDS011;9492;51.888;5.186;2024-03-08T03:11:31;25.33;;;17.23;;
18726;SDS011;9492;51.888;5.186;2024-03-08T03:13:57;23.13;;;15.40;;
18726;SDS011;9492;51.888;5.186;2024-03-08T03:16:26;23.67;;;16.07;;
18726;SDS011;9492;51.888;5.186;2024-03-08T03:18:52;25.07;;;16.67;;
18726;SDS011;9492;51.888;5.186;2024-03-08T03:21:18;22.97;;;16.90;;
18726;SDS011;9492;51.888;5.186;2024-03-08T03:23:44;23.87;;;16.83;;
18726;SDS011;9492;51.888;5.186;2024-03-08T03:26:10;24.90;;;16.30;;
18726;SDS011;9492;51.888;5.186;2024-03-08T03:28:37;22.63;;;17.70;;
18726;SDS011;9492;51.888;5.186;2024-03-08T03:31:05;24.83;;;16.70;;
18726;SDS011;9492;51.888;5.186;2024-03-08T03:33:31;22.93;;;16.23;;
18726;SDS011;9492;51.888;5.186;2024-03-08T03:35:59;23.90;;;16.77;;
18726;SDS011;9492;51.888;5.186;2024-03-08T03:38:26;26.27;;;16.50;;
18726;SDS011;9492;51.888;5.186;2024-03-08T03:40:53;23.73;;;16.57;;
18726;SDS011;9492;51.888;5.186;2024-03-08T03:43:22;24.10;;;16.47;;
18726;SDS011;9492;51.888;5.186;2024-03-08T03:45:48;23.03;;;16.33;;
18726;SDS011;9492;51.888;5.186;2024-03-08T03:48:15;22.40;;;15.57;;
18726;SDS011;9492;51.888;5.186;2024-03-08T03:50:41;26.57;;;17.23;;
18726;SDS011;9492;51.888;5.186;2024-03-08T03:53:09;21.93;;;16.47;;
18726;SDS011;9492;51.888;5.186;2024-03-08T03:55:35;25.10;;;17.33;;
18726;SDS011;9492;51.888;5.186;2024-03-08T03:58:04;22.67;;;16.87;;
18726;SDS011;9492;51.888;5.186;2024-03-08T04:00:30;24.13;;;17.27;;
18726;SDS011;9492;51.888;5.186;2024-03-08T04:02:57;27.67;;;17.60;;
18726;SDS011;9492;51.888;5.186;2024-03-08T04:05:25;25.73;;;16.77;;
18726;SDS011;9492;51.888;5.186;2024-03-08T04:07:51;24.30;;;16.77;;
18726;SDS011;9492;51.888;5.186;2024-03-08T04:10:17;26.33;;;17.23;;
18726;SDS011;9492;51.888;5.186;2024-03-08T04:12:43;24.73;;;18.03;;
18726;SDS011;9492;51.888;5.186;2024-03-08T04:15:09;24.67;;;17.73;;
18726;SDS011;9492;51.888;5.186;2024-03-08T04:17:36;23.40;;;16.50;;
18726;SDS011;9492;51.888;5.186;2024-03-08T04:20:04;26.87;;;17.77;;
18726;SDS011;9492;51.888;5.186;2024-03-08T04:22:37;25.23;;;17.07;;
18726;SDS011;9492;51.888;5.186;2024-03-08T04:25:04;27.00;;;17.83;;
18726;SDS011;9492;51.888;5.186;2024-03-08T04:27:31;27.83;;;18.67;;
18726;SDS011;9492;51.888;5.186;2024-03-08T04:29:57;26.03;;;18.10;;
18726;SDS011;9492;51.888;5.186;2024-03-08T04:32:24;23.37;;;17.33;;
18726;SDS011;9492;51.888;5.186;2024-03-08T04:34:50;28.30;;;18.27;;
18726;SDS011;9492;51.888;5.186;2024-03-08T04:37:16;30.17;;;19.57;;
18726;SDS011;9492;51.888;5.186;2024-03-08T04:39:48;28.93;;;17.20;;
18726;SDS011;9492;51.888;5.186;2024-03-08T04:42:14;26.20;;;18.00;;
18726;SDS011;9492;51.888;5.186;2024-03-08T04:44:40;26.93;;;19.10;;
18726;SDS011;9492;51.888;5.186;2024-03-08T04:47:06;27.03;;;19.07;;
18726;SDS011;9492;51.888;5.186;2024-03-08T04:49:32;24.77;;;17.30;;
18726;SDS011;9492;51.888;5.186;2024-03-08T04:52:02;25.33;;;18.67;;
18726;SDS011;9492;51.888;5.186;2024-03-08T04:54:28;27.40;;;19.23;;
18726;SDS011;9492;51.888;5.186;2024-03-08T04:56:54;25.23;;;17.53;;
18726;SDS011;9492;51.888;5.186;2024-03-08T04:59:20;28.20;;;20.03;;
18726;SDS011;9492;51.888;5.186;2024-03-08T05:01:46;24.13;;;17.73;;
18726;SDS011;9492;51.888;5.186;2024-03-08T05:04:13;28.30;;;19.00;;
18726;SDS011;9492;51.888;5.186;2024-03-08T05:06:40;27.87;;;18.53;;
18726;SDS011;9492;51.888;5.186;2024-03-08T05:09:06;25.80;;;18.30;;
18726;SDS011;9492;51.888;5.186;2024-03-08T05:11:45;25.07;;;19.10;;
18726;SDS011;9492;51.888;5.186;2024-03-08T05:14:12;27.57;;;19.50;;
18726;SDS011;9492;51.888;5.186;2024-03-08T05:16:41;31.03;;;20.73;;
18726;SDS011;9492;51.888;5.186;2024-03-08T05:19:07;29.50;;;20.33;;
18726;SDS011;9492;51.888;5.186;2024-03-08T05:21:33;28.67;;;19.20;;
18726;SDS011;9492;51.888;5.186;2024-03-08T05:23:59;24.50;;;17.83;;
18726;SDS011;9492;51.888;5.186;2024-03-08T05:26:25;29.63;;;19.70;;
18726;SDS011;9492;51.888;5.186;2024-03-08T05:28:51;30.63;;;21.07;;
18726;SDS011;9492;51.888;5.186;2024-03-08T05:31:18;29.07;;;19.90;;
18726;SDS011;9492;51.888;5.186;2024-03-08T05:33:45;29.60;;;20.90;;
18726;SDS011;9492;51.888;5.186;2024-03-08T05:36:11;25.63;;;18.50;;
18726;SDS011;9492;51.888;5.186;2024-03-08T05:38:37;30.80;;;20.30;;
18726;SDS011;9492;51.888;5.186;2024-03-08T05:41:03;24.93;;;18.40;;
18726;SDS011;9492;51.888;5.186;2024-03-08T05:43:30;29.87;;;20.63;;
18726;SDS011;9492;51.888;5.186;2024-03-08T05:45:56;28.40;;;19.87;;
18726;SDS011;9492;51.888;5.186;2024-03-08T05:48:22;31.37;;;21.07;;
18726;SDS011;9492;51.888;5.186;2024-03-08T05:50:47;28.10;;;18.90;;
18726;SDS011;9492;51.888;5.186;2024-03-08T05:53:13;26.30;;;19.20;;
18726;SDS011;9492;51.888;5.186;2024-03-08T05:55:39;27.43;;;19.27;;
18726;SDS011;9492;51.888;5.186;2024-03-08T05:58:05;27.77;;;19.30;;
18726;SDS011;9492;51.888;5.186;2024-03-08T06:00:33;27.33;;;19.93;;
18726;SDS011;9492;51.888;5.186;2024-03-08T06:02:59;30.30;;;20.67;;
18726;SDS011;9492;51.888;5.186;2024-03-08T06:05:25;30.13;;;19.77;;
18726;SDS011;9492;51.888;5.186;2024-03-08T06:07:51;31.07;;;20.10;;
18726;SDS011;9492;51.888;5.186;2024-03-08T06:10:18;30.20;;;19.30;;
18726;SDS011;9492;51.888;5.186;2024-03-08T06:12:44;28.77;;;19.73;;
18726;SDS011;9492;51.888;5.186;2024-03-08T06:15:10;26.40;;;18.70;;
18726;SDS011;9492;51.888;5.186;2024-03-08T06:17:39;27.27;;;19.50;;
18726;SDS011;9492;51.888;5.186;2024-03-08T06:20:05;28.67;;;19.30;;
18726;SDS011;9492;51.888;5.186;2024-03-08T06:22:41;28.60;;;19.87;;
18726;SDS011;9492;51.888;5.186;2024-03-08T06:25:08;33.13;;;20.27;;
18726;SDS011;9492;51.888;5.186;2024-03-08T06:27:36;32.77;;;20.30;;
18726;SDS011;9492;51.888;5.186;2024-03-08T06:30:02;28.10;;;19.43;;
18726;SDS011;9492;51.888;5.186;2024-03-08T06:32:29;28.77;;;20.30;;
18726;SDS011;9492;51.888;5.186;2024-03-08T06:34:55;30.87;;;20.10;;
18726;SDS011;9492;51.888;5.186;2024-03-08T06:37:21;28.57;;;19.83;;
18726;SDS011;9492;51.888;5.186;2024-03-08T06:39:48;31.67;;;21.47;;
18726;SDS011;9492;51.888;5.186;2024-03-08T06:42:16;28.20;;;19.47;;
18726;SDS011;9492;51.888;5.186;2024-03-08T06:44:42;28.73;;;20.93;;
18726;SDS011;9492;51.888;5.186;2024-03-08T06:47:14;31.57;;;20.57;;
18726;SDS011;9492;51.888;5.186;2024-03-08T06:49:41;31.07;;;20.07;;
18726;SDS011;9492;51.888;5.186;2024-03-08T06:52:07;29.37;;;21.10;;
18726;SDS011;9492;51.888;5.186;2024-03-08T06:54:34;30.80;;;21.33;;
18726;SDS011;9492;51.888;5.186;2024-03-08T06:57:04;33.30;;;20.63;;
18726;SDS011;9492;51.888;5.186;2024-03-08T06:59:30;31.77;;;20.03;;
18726;SDS011;9492;51.888;5.186;2024-03-08T07:01:56;31.37;;;20.07;;
18726;SDS011;9492;51.888;5.186;2024-03-08T07:04:24;28.27;;;20.37;;
18726;SDS011;9492;51.888;5.186;2024-03-08T07:06:54;33.03;;;20.57;;
18726;SDS011;9492;51.888;5.186;2024-03-08T07:09:20;28.77;;;20.37;;
18726;SDS011;9492;51.888;5.186;2024-03-08T07:11:46;32.07;;;21.03;;
18726;SDS011;9492;51.888;5.186;2024-03-08T07:14:12;29.63;;;20.57;;
18726;SDS011;9492;51.888;5.186;2024-03-08T07:16:40;32.47;;;20.23;;
18726;SDS011;9492;51.888;5.186;2024-03-08T07:19:06;30.60;;;20.27;;
18726;SDS011;9492;51.888;5.186;2024-03-08T07:21:32;32.23;;;21.80;;
18726;SDS011;9492;51.888;5.186;2024-03-08T07:23:58;35.77;;;21.07;;
18726;SDS011;9492;51.888;5.186;2024-03-08T07:26:24;32.70;;;19.10;;
18726;SDS011;9492;51.888;5.186;2024-03-08T07:28:50;30.80;;;19.37;;
18726;SDS011;9492;51.888;5.186;2024-03-08T07:31:16;31.23;;;19.57;;
18726;SDS011;9492;51.888;5.186;2024-03-08T07:33:42;27.80;;;19.33;;
18726;SDS011;9492;51.888;5.186;2024-03-08T07:36:09;31.03;;;20.93;;
18726;SDS011;9492;51.888;5.186;2024-03-08T07:38:35;28.93;;;18.17;;
18726;SDS011;9492;51.888;5.186;2024-03-08T07:41:01;28.73;;;20.50;;
18726;SDS011;9492;51.888;5.186;2024-03-08T07:43:27;28.47;;;19.10;;
18726;SDS011;9492;51.888;5.186;2024-03-08T07:45:53;28.27;;;19.10;;
18726;SDS011;9492;51.888;5.186;2024-03-08T07:48:20;23.60;;;18.43;;
18726;SDS011;9492;51.888;5.186;2024-03-08T07:50:46;24.40;;;18.03;;
18726;SDS011;9492;51.888;5.186;2024-03-08T07:53:13;27.57;;;18.50;;
18726;SDS011;9492;51.888;5.186;2024-03-08T07:55:40;26.60;;;17.40;;
18726;SDS011;9492;51.888;5.186;2024-03-08T07:58:07;26.67;;;18.00;;
18726;SDS011;9492;51.888;5.186;2024-03-08T08:00:35;25.80;;;18.27;;
18726;SDS011;9492;51.888;5.186;2024-03-08T08:03:02;23.97;;;17.17;;
18726;SDS011;9492;51.888;5.186;2024-03-08T08:05:28;24.67;;;17.00;;
18726;SDS011;9492;51.888;5.186;2024-03-08T08:07:55;25.70;;;18.90;;
18726;SDS011;9492;51.888;5.186;2024-03-08T08:10:21;23.83;;;17.63;;
18726;SDS011;9492;51.888;5.186;2024-03-08T08:12:47;28.17;;;18.07;;
18726;SDS011;9492;51.888;5.186;2024-03-08T08:15:13;26.47;;;19.23;;
18726;SDS011;9492;51.888;5.186;2024-03-08T08:17:43;28.03;;;18.20;;
18726;SDS011;9492;51.888;5.186;2024-03-08T08:20:09;23.87;;;18.37;;
18726;SDS011;9492;51.888;5.186;2024-03-08T08:22:36;23.77;;;17.63;;
18726;SDS011;9492;51.888;5.186;2024-03-08T08:25:03;25.27;;;17.87;;
18726;SDS011;9492;51.888;5.186;2024-03-08T08:27:29;27.13;;;18.93;;
18726;SDS011;9492;51.888;5.186;2024-03-08T08:29:55;25.63;;;18.20;;
18726;SDS011;9492;51.888;5.186;2024-03-08T08:32:21;25.07;;;17.50;;
18726;SDS011;9492;51.888;5.186;2024-03-08T08:37:23;25.63;;;18.60;;
18726;SDS011;9492;51.888;5.186;2024-03-08T08:39:49;27.63;;;17.83;;
18726;SDS011;9492;51.888;5.186;2024-03-08T08:42:16;25.00;;;17.57;;
18726;SDS011;9492;51.888;5.186;2024-03-08T08:44:42;27.83;;;19.07;;
18726;SDS011;9492;51.888;5.186;2024-03-08T08:47:08;25.97;;;18.17;;
18726;SDS011;9492;51.888;5.186;2024-03-08T08:49:34;24.47;;;17.47;;
18726;SDS011;9492;51.888;5.186;2024-03-08T08:52:01;22.53;;;17.23;;
18726;SDS011;9492;51.888;5.186;2024-03-08T08:54:28;24.57;;;17.70;;
18726;SDS011;9492;51.888;5.186;2024-03-08T08:56:54;26.63;;;18.43;;
18726;SDS011;9492;51.888;5.186;2024-03-08T08:59:20;29.33;;;17.77;;
18726;SDS011;9492;51.888;5.186;2024-03-08T09:01:49;24.67;;;17.97;;
18726;SDS011;9492;51.888;5.186;2024-03-08T09:04:21;28.67;;;17.67;;
18726;SDS011;9492;51.888;5.186;2024-03-08T09:06:47;25.83;;;17.73;;
18726;SDS011;9492;51.888;5.186;2024-03-08T09:09:14;24.73;;;17.60;;
18726;SDS011;9492;51.888;5.186;2024-03-08T09:11:42;24.53;;;17.90;;
18726;SDS011;9492;51.888;5.186;2024-03-08T09:14:08;25.57;;;17.57;;
18726;SDS011;9492;51.888;5.186;2024-03-08T09:16:34;25.77;;;17.47;;
18726;SDS011;9492;51.888;5.186;2024-03-08T09:19:01;21.67;;;16.87;;
18726;SDS011;9492;51.888;5.186;2024-03-08T09:21:27;24.17;;;17.47;;
18726;SDS011;9492;51.888;5.186;2024-03-08T09:23:53;26.57;;;17.00;;
18726;SDS011;9492;51.888;5.186;2024-03-08T09:26:19;25.03;;;17.13;;
18726;SDS011;9492;51.888;5.186;2024-03-08T09:28:47;21.33;;;16.87;;
18726;SDS011;9492;51.888;5.186;2024-03-08T09:31:13;23.10;;;16.90;;
18726;SDS011;9492;51.888;5.186;2024-03-08T09:33:40;28.03;;;18.27;;
18726;SDS011;9492;51.888;5.186;2024-03-08T09:36:07;23.93;;;17.87;;
18726;SDS011;9492;51.888;5.186;2024-03-08T09:38:33;27.00;;;18.60;;
18726;SDS011;9492;51.888;5.186;2024-03-08T09:41:00;26.47;;;18.13;;
18726;SDS011;9492;51.888;5.186;2024-03-08T09:43:27;24.27;;;16.53;;
18726;SDS011;9492;51.888;5.186;2024-03-08T09:45:56;22.83;;;18.50;;
18726;SDS011;9492;51.888;5.186;2024-03-08T09:48:22;26.13;;;17.87;;
18726;SDS011;9492;51.888;5.186;2024-03-08T09:50:49;26.57;;;18.47;;
18726;SDS011;9492;51.888;5.186;2024-03-08T09:53:15;24.63;;;17.90;;
18726;SDS011;9492;51.888;5.186;2024-03-08T09:55:41;25.17;;;17.23;;
18726;SDS011;9492;51.888;5.186;2024-03-08T09:58:10;25.33;;;17.33;;
18726;SDS011;9492;51.888;5.186;2024-03-08T10:00:57;25.00;;;17.57;;
18726;SDS011;9492;51.888;5.186;2024-03-08T10:03:32;23.97;;;17.63;;
18726;SDS011;9492;51.888;5.186;2024-03-08T10:05:59;24.90;;;17.47;;
18726;SDS011;9492;51.888;5.186;2024-03-08T10:08:29;25.77;;;17.40;;
18726;SDS011;9492;51.888;5.186;2024-03-08T10:10:55;23.50;;;17.93;;
18726;SDS011;9492;51.888;5.186;2024-03-08T10:13:27;22.13;;;16.63;;
18726;SDS011;9492;51.888;5.186;2024-03-08T10:15:53;26.20;;;17.80;;
18726;SDS011;9492;51.888;5.186;2024-03-08T10:18:19;26.80;;;17.00;;
18726;SDS011;9492;51.888;5.186;2024-03-08T10:20:45;23.50;;;16.80;;
18726;SDS011;9492;51.888;5.186;2024-03-08T10:23:11;24.23;;;16.07;;
18726;SDS011;9492;51.888;5.186;2024-03-08T10:25:40;24.27;;;17.10;;
18726;SDS011;9492;51.888;5.186;2024-03-08T10:28:07;25.20;;;17.50;;
18726;SDS011;9492;51.888;5.186;2024-03-08T10:30:38;26.90;;;17.60;;
18726;SDS011;9492;51.888;5.186;2024-03-08T10:33:07;23.27;;;16.17;;
18726;SDS011;9492;51.888;5.186;2024-03-08T10:35:37;26.27;;;18.67;;
18726;SDS011;9492;51.888;5.186;2024-03-08T10:38:10;32.20;;;18.07;;
18726;SDS011;9492;51.888;5.186;2024-03-08T10:40:41;22.93;;;16.33;;
18726;SDS011;9492;51.888;5.186;2024-03-08T10:43:07;23.70;;;15.97;;
18726;SDS011;9492;51.888;5.186;2024-03-08T10:45:39;23.93;;;17.33;;
18726;SDS011;9492;51.888;5.186;2024-03-08T10:51:09;25.77;;;17.33;;
18726;SDS011;9492;51.888;5.186;2024-03-08T10:53:37;24.33;;;16.70;;
18726;SDS011;9492;51.888;5.186;2024-03-08T10:56:06;24.47;;;16.13;;
18726;SDS011;9492;51.888;5.186;2024-03-08T10:58:36;20.23;;;15.03;;
18726;SDS011;9492;51.888;5.186;2024-03-08T11:01:03;21.60;;;15.93;;
18726;SDS011;9492;51.888;5.186;2024-03-08T11:08:48;21.43;;;15.37;;
18726;SDS011;9492;51.888;5.186;2024-03-08T11:11:32;24.30;;;15.77;;
18726;SDS011;9492;51.888;5.186;2024-03-08T11:14:02;22.00;;;16.83;;
18726;SDS011;9492;51.888;5.186;2024-03-08T11:18:58;21.27;;;16.50;;
18726;SDS011;9492;51.888;5.186;2024-03-08T11:21:32;19.97;;;15.00;;
18726;SDS011;9492;51.888;5.186;2024-03-08T11:23:59;21.67;;;16.23;;
18726;SDS011;9492;51.888;5.186;2024-03-08T11:26:33;20.77;;;15.00;;
18726;SDS011;9492;51.888;5.186;2024-03-08T11:31:46;20.93;;;15.97;;
18726;SDS011;9492;51.888;5.186;2024-03-08T11:34:15;20.97;;;15.77;;
18726;SDS011;9492;51.888;5.186;2024-03-08T11:36:41;21.40;;;15.13;;
18726;SDS011;9492;51.888;5.186;2024-03-08T11:39:07;20.90;;;15.73;;
18726;SDS011;9492;51.888;5.186;2024-03-08T11:41:39;24.37;;;16.07;;
18726;SDS011;9492;51.888;5.186;2024-03-08T11:44:06;19.80;;;14.90;;
18726;SDS011;9492;51.888;5.186;2024-03-08T11:46:34;23.37;;;15.43;;
18726;SDS011;9492;51.888;5.186;2024-03-08T11:49:00;23.20;;;16.57;;
18726;SDS011;9492;51.888;5.186;2024-03-08T11:51:26;24.30;;;15.83;;
18726;SDS011;9492;51.888;5.186;2024-03-08T11:53:53;19.50;;;15.13;;
18726;SDS011;9492;51.888;5.186;2024-03-08T11:56:19;22.10;;;15.03;;
18726;SDS011;9492;51.888;5.186;2024-03-08T11:58:55;20.97;;;14.63;;
18726;SDS011;9492;51.888;5.186;2024-03-08T12:01:22;19.77;;;15.13;;
18726;SDS011;9492;51.888;5.186;2024-03-08T12:03:55;19.10;;;14.70;;
18726;SDS011;9492;51.888;5.186;2024-03-08T12:06:35;22.00;;;15.87;;
18726;SDS011;9492;51.888;5.186;2024-03-08T12:09:04;20.53;;;15.03;;
18726;SDS011;9492;51.888;5.186;2024-03-08T12:11:30;22.23;;;15.00;;
18726;SDS011;9492;51.888;5.186;2024-03-08T12:13:56;23.20;;;15.70;;
18726;SDS011;9492;51.888;5.186;2024-03-08T12:16:23;24.10;;;14.93;;
18726;SDS011;9492;51.888;5.186;2024-03-08T12:18:50;22.83;;;15.13;;
18726;SDS011;9492;51.888;5.186;2024-03-08T12:21:17;21.60;;;14.97;;
18726;SDS011;9492;51.888;5.186;2024-03-08T12:23:46;23.07;;;15.10;;
18726;SDS011;9492;51.888;5.186;2024-03-08T12:26:23;24.80;;;14.97;;
18726;SDS011;9492;51.888;5.186;2024-03-08T12:28:50;20.60;;;13.90;;
18726;SDS011;9492;51.888;5.186;2024-03-08T12:31:17;23.63;;;15.20;;
18726;SDS011;9492;51.888;5.186;2024-03-08T12:33:52;19.37;;;14.83;;
18726;SDS011;9492;51.888;5.186;2024-03-08T12:36:18;21.93;;;15.27;;
18726;SDS011;9492;51.888;5.186;2024-03-08T12:38:47;22.20;;;14.87;;
18726;SDS011;9492;51.888;5.186;2024-03-08T12:41:14;20.80;;;14.70;;
18726;SDS011;9492;51.888;5.186;2024-03-08T12:43:40;17.33;;;14.33;;
18726;SDS011;9492;51.888;5.186;2024-03-08T12:46:09;22.43;;;13.77;;
18726;SDS011;9492;51.888;5.186;2024-03-08T12:48:35;20.57;;;13.50;;
18726;SDS011;9492;51.888;5.186;2024-03-08T12:51:05;20.23;;;14.40;;
18726;SDS011;9492;51.888;5.186;2024-03-08T12:53:32;19.97;;;14.40;;
18726;SDS011;9492;51.888;5.186;2024-03-08T12:56:01;21.57;;;14.00;;
18726;SDS011;9492;51.888;5.186;2024-03-08T12:58:28;23.17;;;14.00;;
18726;SDS011;9492;51.888;5.186;2024-03-08T13:00:56;18.43;;;13.37;;
18726;SDS011;9492;51.888;5.186;2024-03-08T13:03:22;21.07;;;14.80;;
18726;SDS011;9492;51.888;5.186;2024-03-08T13:05:48;24.10;;;14.20;;
18726;SDS011;9492;51.888;5.186;2024-03-08T13:08:14;21.77;;;15.27;;
18726;SDS011;9492;51.888;5.186;2024-03-08T13:10:41;19.67;;;14.37;;
18726;SDS011;9492;51.888;5.186;2024-03-08T13:13:10;19.47;;;13.87;;
18726;SDS011;9492;51.888;5.186;2024-03-08T13:15:42;21.43;;;14.17;;
18726;SDS011;9492;51.888;5.186;2024-03-08T13:18:08;19.60;;;14.30;;
18726;SDS011;9492;51.888;5.186;2024-03-08T13:20:35;20.30;;;14.47;;
18726;SDS011;9492;51.888;5.186;2024-03-08T13:23:04;22.10;;;15.53;;
18726;SDS011;9492;51.888;5.186;2024-03-08T13:25:30;20.97;;;14.33;;
18726;SDS011;9492;51.888;5.186;2024-03-08T13:27:56;22.07;;;15.07;;
18726;SDS011;9492;51.888;5.186;2024-03-08T13:30:24;24.17;;;14.07;;
18726;SDS011;9492;51.888;5.186;2024-03-08T13:32:54;23.33;;;15.37;;
18726;SDS011;9492;51.888;5.186;2024-03-08T13:35:20;20.47;;;14.13;;
18726;SDS011;9492;51.888;5.186;2024-03-08T13:37:52;19.37;;;14.33;;
18726;SDS011;9492;51.888;5.186;2024-03-08T13:40:18;20.57;;;14.40;;
18726;SDS011;9492;51.888;5.186;2024-03-08T13:42:45;23.57;;;14.63;;
18726;SDS011;9492;51.888;5.186;2024-03-08T13:45:12;22.67;;;16.03;;
18726;SDS011;9492;51.888;5.186;2024-03-08T13:47:39;20.63;;;14.17;;
18726;SDS011;9492;51.888;5.186;2024-03-08T13:50:06;23.73;;;14.03;;
18726;SDS011;9492;51.888;5.186;2024-03-08T13:52:33;25.87;;;15.70;;
18726;SDS011;9492;51.888;5.186;2024-03-08T13:55:00;24.90;;;14.57;;
18726;SDS011;9492;51.888;5.186;2024-03-08T13:57:26;21.37;;;14.90;;
18726;SDS011;9492;51.888;5.186;2024-03-08T13:59:56;25.37;;;14.13;;
18726;SDS011;9492;51.888;5.186;2024-03-08T14:02:21;24.63;;;14.80;;
18726;SDS011;9492;51.888;5.186;2024-03-08T14:04:52;19.57;;;13.67;;
18726;SDS011;9492;51.888;5.186;2024-03-08T14:07:19;26.07;;;14.67;;
18726;SDS011;9492;51.888;5.186;2024-03-08T14:09:45;19.70;;;14.17;;
18726;SDS011;9492;51.888;5.186;2024-03-08T14:12:11;23.37;;;14.77;;
18726;SDS011;9492;51.888;5.186;2024-03-08T14:14:38;22.63;;;14.70;;
18726;SDS011;9492;51.888;5.186;2024-03-08T14:17:04;24.33;;;15.07;;
18726;SDS011;9492;51.888;5.186;2024-03-08T14:19:32;21.63;;;15.37;;
18726;SDS011;9492;51.888;5.186;2024-03-08T14:21:59;21.00;;;14.57;;
18726;SDS011;9492;51.888;5.186;2024-03-08T14:24:25;27.67;;;15.00;;
18726;SDS011;9492;51.888;5.186;2024-03-08T14:26:51;22.00;;;14.17;;
18726;SDS011;9492;51.888;5.186;2024-03-08T14:29:17;19.70;;;14.07;;
18726;SDS011;9492;51.888;5.186;2024-03-08T14:31:44;22.70;;;15.23;;
18726;SDS011;9492;51.888;5.186;2024-03-08T14:34:10;22.40;;;14.70;;
18726;SDS011;9492;51.888;5.186;2024-03-08T14:36:36;29.00;;;15.27;;
18726;SDS011;9492;51.888;5.186;2024-03-08T14:39:03;22.80;;;14.60;;
18726;SDS011;9492;51.888;5.186;2024-03-08T14:41:29;23.93;;;15.57;;
18726;SDS011;9492;51.888;5.186;2024-03-08T14:43:55;24.07;;;14.97;;
18726;SDS011;9492;51.888;5.186;2024-03-08T14:46:22;18.70;;;14.63;;
18726;SDS011;9492;51.888;5.186;2024-03-08T14:48:49;24.07;;;15.20;;